Time;durP1;ratioP1;P1;durP2;ratioP2;P2;SDS_P1;SDS_P2;PMS_P1;PMS_P2;Temp;Humidity;BMP_temperature;BMP_pressure;BME280_temperature;BME280_humidity;BME280_pressure;Samples;Min_cycle;Max_cycle;Signal;HPM_P1;HPM_P2
2021/11/09 00:00:22;;;;;;;4.90;4.38;;;;;;;;;;5062347;28;24418;-61
2021/11/09 00:02:47;;;;;;;5.25;4.68;;;;;;;;;;5059758;28;24445;-61
2021/11/09 00:05:16;;;;;;;5.40;4.53;;;;;;;;;;5057975;28;24453;-61
2021/11/09 00:10:07;;;;;;;5.77;5.00;;;;;;;;;;5061563;28;24769;-61
2021/11/09 00:12:41;;;;;;;5.70;5.15;;;;;;;;;;5062313;28;24437;-61
2021/11/09 00:15:07;;;;;;;6.50;5.40;;;;;;;;;;5057185;28;24422;-61
2021/11/09 00:17:33;;;;;;;6.70;5.23;;;;;;;;;;5045964;28;24854;-62
2021/11/09 00:19:58;;;;;;;6.20;4.90;;;;;;;;;;5056523;28;24413;-61
2021/11/09 00:22:24;;;;;;;5.20;4.70;;;;;;;;;;5059926;28;25042;-61
2021/11/09 00:24:49;;;;;;;5.30;4.50;;;;;;;;;;5059477;28;24486;-61
2021/11/09 00:27:15;;;;;;;5.85;4.93;;;;;;;;;;5048068;28;24412;-61
2021/11/09 00:29:40;;;;;;;5.40;4.47;;;;;;;;;;5060803;28;24411;-61
2021/11/09 00:32:06;;;;;;;6.93;5.17;;;;;;;;;;5055937;28;24541;-61
2021/11/09 00:34:31;;;;;;;7.78;5.10;;;;;;;;;;5056321;28;24503;-61
2021/11/09 00:36:57;;;;;;;5.87;5.17;;;;;;;;;;5054968;28;24507;-62
2021/11/09 00:39:22;;;;;;;5.32;4.80;;;;;;;;;;5053065;28;24438;-63
2021/11/09 00:41:47;;;;;;;7.50;4.90;;;;;;;;;;5058277;28;24463;-62
2021/11/09 00:44:12;;;;;;;6.15;4.85;;;;;;;;;;5057535;28;24414;-61
2021/11/09 00:46:38;;;;;;;5.50;4.97;;;;;;;;;;5056713;28;24419;-62
2021/11/09 00:49:03;;;;;;;6.03;4.80;;;;;;;;;;5057213;28;25138;-61
2021/11/09 00:51:28;;;;;;;5.87;4.70;;;;;;;;;;5061287;28;24427;-62
2021/11/09 00:53:54;;;;;;;5.50;5.00;;;;;;;;;;5059671;28;24541;-61
2021/11/09 00:56:19;;;;;;;5.60;4.80;;;;;;;;;;5059836;28;24860;-61
2021/11/09 00:58:45;;;;;;;5.40;4.90;;;;;;;;;;5057380;28;24415;-61
2021/11/09 01:01:10;;;;;;;7.20;5.10;;;;;;;;;;5058025;28;25269;-61
2021/11/09 01:03:35;;;;;;;5.80;4.95;;;;;;;;;;5055903;28;24446;-61
2021/11/09 01:06:00;;;;;;;5.63;4.73;;;;;;;;;;5057499;28;24479;-61
2021/11/09 01:08:25;;;;;;;7.57;4.80;;;;;;;;;;5060173;28;24519;-61
2021/11/09 01:10:51;;;;;;;5.57;4.83;;;;;;;;;;5059712;28;24624;-61
2021/11/09 01:13:17;;;;;;;4.90;4.40;;;;;;;;;;5056016;28;24466;-61
2021/11/09 01:15:49;;;;;;;4.97;4.40;;;;;;;;;;5057870;28;25031;-60
2021/11/09 01:18:14;;;;;;;5.97;4.28;;;;;;;;;;5059642;28;24441;-61
2021/11/09 01:20:40;;;;;;;5.32;4.50;;;;;;;;;;5060000;28;24442;-61
2021/11/09 01:23:05;;;;;;;6.43;4.90;;;;;;;;;;5059014;28;24419;-61
2021/11/09 01:25:32;;;;;;;4.90;4.40;;;;;;;;;;5059641;28;24415;-61
2021/11/09 01:27:57;;;;;;;5.72;4.47;;;;;;;;;;5056962;28;24418;-61
2021/11/09 01:30:23;;;;;;;5.70;4.40;;;;;;;;;;5054308;28;24430;-61
2021/11/09 01:32:49;;;;;;;5.73;5.00;;;;;;;;;;5059352;28;24928;-61
2021/11/09 01:35:14;;;;;;;5.03;4.53;;;;;;;;;;5061274;28;24399;-61
2021/11/09 01:37:39;;;;;;;4.73;4.03;;;;;;;;;;5057104;28;24411;-62
2021/11/09 01:40:06;;;;;;;5.50;4.70;;;;;;;;;;5056370;28;24526;-62
2021/11/09 01:42:31;;;;;;;5.20;4.70;;;;;;;;;;5050761;28;24421;-62
2021/11/09 01:44:57;;;;;;;5.50;4.50;;;;;;;;;;5062817;28;24423;-62
2021/11/09 01:47:22;;;;;;;5.30;4.50;;;;;;;;;;5064929;28;24422;-62
2021/11/09 01:49:47;;;;;;;4.50;4.10;;;;;;;;;;5061100;28;24508;-62
2021/11/09 01:52:12;;;;;;;5.85;5.00;;;;;;;;;;5055220;28;25111;-62
2021/11/09 01:54:38;;;;;;;5.00;4.60;;;;;;;;;;5061619;28;24419;-61
2021/11/09 01:57:03;;;;;;;5.50;4.40;;;;;;;;;;5061304;28;24773;-62
2021/11/09 01:59:30;;;;;;;4.83;4.40;;;;;;;;;;5064033;28;25006;-61
2021/11/09 02:01:56;;;;;;;5.07;4.35;;;;;;;;;;5062534;28;24956;-62
2021/11/09 02:04:21;;;;;;;4.87;4.47;;;;;;;;;;5064575;28;24421;-61
2021/11/09 02:06:49;;;;;;;5.03;4.53;;;;;;;;;;5056144;28;24426;-63
2021/11/09 02:09:16;;;;;;;5.30;4.60;;;;;;;;;;5058734;28;24453;-63
2021/11/09 02:11:41;;;;;;;4.50;4.10;;;;;;;;;;5057310;28;24415;-63
2021/11/09 02:14:07;;;;;;;4.80;4.30;;;;;;;;;;5060744;28;24487;-63
2021/11/09 02:16:32;;;;;;;5.13;4.60;;;;;;;;;;5064913;28;24391;-64
2021/11/09 02:18:57;;;;;;;5.15;4.65;;;;;;;;;;5061114;28;24379;-64
2021/11/09 02:21:23;;;;;;;6.97;4.80;;;;;;;;;;5055427;28;24992;-63
2021/11/09 02:23:48;;;;;;;5.82;4.50;;;;;;;;;;5059372;28;24445;-64
2021/11/09 02:26:15;;;;;;;5.00;4.50;;;;;;;;;;5064381;28;24476;-63
2021/11/09 02:28:41;;;;;;;5.93;4.40;;;;;;;;;;5064412;28;24401;-63
2021/11/09 02:31:06;;;;;;;5.13;4.40;;;;;;;;;;5058989;28;24419;-63
2021/11/09 02:33:32;;;;;;;5.43;4.90;;;;;;;;;;5049662;28;24441;-63
2021/11/09 02:35:57;;;;;;;5.55;5.00;;;;;;;;;;5058085;28;24418;-63
2021/11/09 02:38:23;;;;;;;5.30;4.80;;;;;;;;;;5062221;28;25052;-63
2021/11/09 02:40:48;;;;;;;5.23;4.57;;;;;;;;;;5051022;28;24488;-63
2021/11/09 02:43:14;;;;;;;5.70;4.73;;;;;;;;;;5063667;28;24418;-62
2021/11/09 02:48:47;;;;;;;5.25;4.75;;;;;;;;;;5038956;28;24429;-62
2021/11/09 02:51:24;;;;;;;5.13;4.30;;;;;;;;;;5052401;28;24480;-62
2021/11/09 02:53:58;;;;;;;5.30;4.80;;;;;;;;;;5058933;28;24982;-62
2021/11/09 02:56:36;;;;;;;6.25;4.82;;;;;;;;;;5048510;28;24419;-62
2021/11/09 02:59:07;;;;;;;5.70;5.10;;;;;;;;;;5057777;28;24414;-62
2021/11/09 03:01:52;;;;;;;6.00;4.78;;;;;;;;;;5057327;28;24429;-62
2021/11/09 03:06:54;;;;;;;5.95;4.70;;;;;;;;;;5053939;28;24878;-62
2021/11/09 03:09:25;;;;;;;5.20;4.70;;;;;;;;;;5063328;28;24411;-62
2021/11/09 03:11:56;;;;;;;7.10;5.40;;;;;;;;;;5059303;28;24431;-62
2021/11/09 03:14:23;;;;;;;6.10;5.10;;;;;;;;;;5053684;28;24755;-62
2021/11/09 03:16:48;;;;;;;5.88;5.03;;;;;;;;;;5055526;28;24504;-62
2021/11/09 03:19:30;;;;;;;5.10;4.60;;;;;;;;;;5063568;28;24394;-62
2021/11/09 03:46:34;;;;;;;6.10;5.50;;;;;;;;;;5062377;28;24418;-62
2021/11/09 03:49:00;;;;;;;6.30;5.10;;;;;;;;;;5038390;28;24487;-63
2021/11/09 03:51:26;;;;;;;6.20;5.33;;;;;;;;;;5049171;28;24535;-62
2021/11/09 03:53:57;;;;;;;6.50;5.10;;;;;;;;;;5059992;28;24469;-61
2021/11/09 03:56:27;;;;;;;5.90;5.30;;;;;;;;;;5062273;28;24444;-62
2021/11/09 03:58:54;;;;;;;5.70;5.20;;;;;;;;;;5059964;28;24426;-61
2021/11/09 04:01:24;;;;;;;6.68;5.45;;;;;;;;;;5058374;28;24456;-63
2021/11/09 04:06:28;;;;;;;5.80;5.20;;;;;;;;;;5056797;28;24411;-63
2021/11/09 04:16:58;;;;;;;5.00;4.60;;;;;;;;;;5060461;28;24414;-62
2021/11/09 04:20:03;;;;;;;6.30;5.40;;;;;;;;;;5057246;28;24446;-63
2021/11/09 04:23:10;;;;;;;7.00;5.55;;;;;;;;;;5049063;28;24413;-64
2021/11/09 04:25:24;;;;;;;5.67;5.17;;;;;;;;;;5045750;28;24804;-63
2021/11/09 04:27:58;;;;;;;6.68;5.38;;;;;;;;;;5059179;28;24468;-64
2021/11/09 04:33:24;;;;;;;6.85;5.93;;;;;;;;;;5049525;28;25053;-64
2021/11/09 04:39:17;;;;;;;6.10;5.17;;;;;;;;;;5058835;28;24465;-63
2021/11/09 04:49:53;;;;;;;6.90;5.03;;;;;;;;;;5055533;28;24483;-63
2021/11/09 04:52:33;;;;;;;5.40;4.90;;;;;;;;;;5056920;28;24461;-64
2021/11/09 05:11:15;;;;;;;6.13;5.20;;;;;;;;;;5052148;28;24479;-65
2021/11/09 05:13:40;;;;;;;6.75;5.50;;;;;;;;;;5056315;28;25047;-63
2021/11/09 05:16:06;;;;;;;5.80;5.20;;;;;;;;;;5044477;28;24522;-63
2021/11/09 05:18:31;;;;;;;6.03;5.27;;;;;;;;;;5063802;28;25160;-63
2021/11/09 05:20:56;;;;;;;5.80;5.30;;;;;;;;;;5061647;28;24427;-63
2021/11/09 05:23:21;;;;;;;6.23;5.00;;;;;;;;;;5062814;28;24418;-62
2021/11/09 05:25:48;;;;;;;7.03;6.00;;;;;;;;;;5056325;28;24442;-63
2021/11/09 05:28:13;;;;;;;9.40;8.40;;;;;;;;;;5051654;28;24505;-64
2021/11/09 05:30:40;;;;;;;9.18;8.00;;;;;;;;;;5061090;28;24502;-63
2021/11/09 05:33:06;;;;;;;8.43;7.53;;;;;;;;;;5068315;28;24442;-63
2021/11/09 05:35:31;;;;;;;8.55;7.28;;;;;;;;;;5064190;28;24979;-63
2021/11/09 05:37:58;;;;;;;7.63;6.83;;;;;;;;;;5060488;28;24426;-64
2021/11/09 05:40:39;;;;;;;7.43;6.73;;;;;;;;;;5057132;28;24967;-63
2021/11/09 05:43:04;;;;;;;7.07;6.38;;;;;;;;;;5038754;28;24426;-63
2021/11/09 05:45:30;;;;;;;9.02;7.10;;;;;;;;;;5053171;28;24413;-63
2021/11/09 05:47:55;;;;;;;6.73;6.03;;;;;;;;;;5061661;28;24414;-63
2021/11/09 05:50:21;;;;;;;6.00;5.50;;;;;;;;;;5061952;28;24418;-63
2021/11/09 05:52:46;;;;;;;7.70;5.80;;;;;;;;;;5058702;28;24582;-63
2021/11/09 05:55:12;;;;;;;6.10;5.50;;;;;;;;;;5058517;28;24509;-62
2021/11/09 05:57:37;;;;;;;5.83;5.23;;;;;;;;;;5056501;28;24415;-62
2021/11/09 06:00:04;;;;;;;6.60;5.73;;;;;;;;;;5054560;28;24794;-63
2021/11/09 06:02:29;;;;;;;8.57;7.28;;;;;;;;;;5049369;28;25058;-63
2021/11/09 06:04:54;;;;;;;6.55;5.95;;;;;;;;;;5052238;28;24435;-63
2021/11/09 06:07:20;;;;;;;7.32;6.45;;;;;;;;;;5051459;28;25051;-63
2021/11/09 06:09:45;;;;;;;6.90;5.90;;;;;;;;;;5054223;28;24418;-63
2021/11/09 06:12:10;;;;;;;6.63;5.65;;;;;;;;;;5058070;28;24699;-63
2021/11/09 06:14:35;;;;;;;6.20;5.70;;;;;;;;;;5059410;28;24411;-63
2021/11/09 06:17:01;;;;;;;6.63;6.00;;;;;;;;;;5051404;28;24403;-63
2021/11/09 06:19:26;;;;;;;6.50;5.40;;;;;;;;;;5050215;28;24734;-63
2021/11/09 06:21:52;;;;;;;5.77;5.27;;;;;;;;;;5050391;28;24426;-64
2021/11/09 06:24:17;;;;;;;6.10;5.35;;;;;;;;;;5060573;28;24558;-63
2021/11/09 06:26:42;;;;;;;7.60;5.63;;;;;;;;;;5062046;28;25008;-63
2021/11/09 06:29:07;;;;;;;7.33;6.40;;;;;;;;;;5061808;28;24399;-63
2021/11/09 06:31:32;;;;;;;8.03;6.43;;;;;;;;;;5059708;28;24431;-63
2021/11/09 06:33:58;;;;;;;7.00;6.30;;;;;;;;;;5058202;28;24444;-63
2021/11/09 06:36:23;;;;;;;6.90;6.10;;;;;;;;;;5061797;28;24417;-63
2021/11/09 06:38:48;;;;;;;6.67;6.00;;;;;;;;;;5061928;28;24407;-63
2021/11/09 06:41:13;;;;;;;6.13;5.53;;;;;;;;;;5064047;28;24411;-63
2021/11/09 06:43:39;;;;;;;7.10;6.00;;;;;;;;;;5063557;28;24890;-63
2021/11/09 06:46:04;;;;;;;7.30;6.20;;;;;;;;;;5057985;28;24403;-63
2021/11/09 06:48:30;;;;;;;7.13;6.00;;;;;;;;;;5058068;28;24403;-63
2021/11/09 06:50:55;;;;;;;6.80;5.80;;;;;;;;;;5059702;28;24470;-63
2021/11/09 06:53:21;;;;;;;7.00;6.10;;;;;;;;;;5063231;28;24427;-63
2021/11/09 06:55:46;;;;;;;6.90;6.20;;;;;;;;;;5061187;28;24414;-63
2021/11/09 06:58:11;;;;;;;7.47;6.40;;;;;;;;;;5062908;28;24395;-63
2021/11/09 07:00:37;;;;;;;7.80;6.25;;;;;;;;;;5058646;28;24506;-64
2021/11/09 07:03:02;;;;;;;8.40;6.00;;;;;;;;;;5053463;28;24552;-63
2021/11/09 07:05:27;;;;;;;6.80;6.20;;;;;;;;;;5058491;28;24970;-63
2021/11/09 07:07:52;;;;;;;6.80;6.10;;;;;;;;;;5063482;28;24401;-62
2021/11/09 07:10:18;;;;;;;7.38;6.47;;;;;;;;;;5063259;28;24425;-63
2021/11/09 07:12:43;;;;;;;9.20;7.00;;;;;;;;;;5062779;28;25023;-63
2021/11/09 07:15:09;;;;;;;7.30;6.60;;;;;;;;;;5058177;28;24489;-63
2021/11/09 07:17:38;;;;;;;7.68;6.50;;;;;;;;;;5040244;28;24514;-63
2021/11/09 07:20:04;;;;;;;7.53;6.70;;;;;;;;;;5056244;28;24503;-63
2021/11/09 07:22:29;;;;;;;6.80;6.13;;;;;;;;;;5046545;28;24513;-64
2021/11/09 07:24:54;;;;;;;7.00;6.30;;;;;;;;;;5059475;28;24827;-63
2021/11/09 07:27:20;;;;;;;7.87;7.10;;;;;;;;;;5062445;28;24998;-63
2021/11/09 07:29:48;;;;;;;8.40;7.20;;;;;;;;;;5058360;28;24426;-63
2021/11/09 07:32:13;;;;;;;8.07;7.38;;;;;;;;;;5056031;28;25022;-63
2021/11/09 07:34:39;;;;;;;8.02;7.32;;;;;;;;;;5051669;28;24956;-63
2021/11/09 07:37:04;;;;;;;8.70;7.80;;;;;;;;;;5065609;28;25029;-62
2021/11/09 07:39:29;;;;;;;7.73;7.03;;;;;;;;;;5054111;28;24469;-62
2021/11/09 07:41:54;;;;;;;7.88;7.07;;;;;;;;;;5057577;28;24418;-62
2021/11/09 07:44:19;;;;;;;7.90;7.10;;;;;;;;;;5057409;28;24468;-64
2021/11/09 07:46:45;;;;;;;9.20;7.90;;;;;;;;;;5058268;28;24960;-63
2021/11/09 07:49:10;;;;;;;7.20;6.50;;;;;;;;;;5062260;28;24514;-63
2021/11/09 07:51:36;;;;;;;8.67;7.53;;;;;;;;;;5061081;28;24984;-64
2021/11/09 07:54:01;;;;;;;8.50;7.32;;;;;;;;;;5058671;28;24423;-62
2021/11/09 07:56:32;;;;;;;8.03;7.00;;;;;;;;;;5058869;28;25352;-63
2021/11/09 07:59:21;;;;;;;7.18;6.47;;;;;;;;;;5057680;28;24418;-63
2021/11/09 08:01:59;;;;;;;7.05;6.35;;;;;;;;;;5052300;28;24522;-63
2021/11/09 08:04:34;;;;;;;7.93;6.65;;;;;;;;;;5060653;28;24460;-63
2021/11/09 08:07:02;;;;;;;8.57;7.45;;;;;;;;;;5059852;28;24418;-63
2021/11/09 08:09:28;;;;;;;8.38;7.57;;;;;;;;;;5062208;28;24582;-63
2021/11/09 08:11:55;;;;;;;11.33;8.27;;;;;;;;;;5056508;28;24940;-63
2021/11/09 08:14:20;;;;;;;10.60;7.30;;;;;;;;;;5058650;28;25002;-63
2021/11/09 08:16:47;;;;;;;9.20;8.30;;;;;;;;;;5057904;28;25115;-62
2021/11/09 08:19:13;;;;;;;8.15;7.35;;;;;;;;;;5062545;28;24749;-63
2021/11/09 08:21:39;;;;;;;9.93;7.65;;;;;;;;;;5061872;28;25224;-63
2021/11/09 08:24:04;;;;;;;9.98;7.78;;;;;;;;;;5059794;28;24419;-63
2021/11/09 08:26:29;;;;;;;11.30;9.13;;;;;;;;;;5058168;28;25322;-63
2021/11/09 08:28:56;;;;;;;9.03;7.87;;;;;;;;;;5056655;28;24399;-63
2021/11/09 08:31:24;;;;;;;9.50;7.95;;;;;;;;;;5059971;28;24449;-62
2021/11/09 08:33:50;;;;;;;10.45;8.85;;;;;;;;;;5059287;28;24477;-63
2021/11/09 08:36:21;;;;;;;8.50;7.32;;;;;;;;;;5061819;28;24536;-62
2021/11/09 08:38:46;;;;;;;9.38;8.30;;;;;;;;;;5061352;28;24887;-62
2021/11/09 08:41:12;;;;;;;9.57;8.23;;;;;;;;;;5056804;28;25038;-63
2021/11/09 08:43:39;;;;;;;11.25;9.25;;;;;;;;;;5057636;28;24387;-62
2021/11/09 08:48:43;;;;;;;12.20;9.70;;;;;;;;;;5061054;28;24422;-63
2021/11/09 08:51:11;;;;;;;10.98;8.68;;;;;;;;;;5066022;28;24403;-63
2021/11/09 08:53:52;;;;;;;9.90;8.70;;;;;;;;;;5065310;28;25018;-63
2021/11/09 08:56:34;;;;;;;9.70;8.70;;;;;;;;;;5061957;28;24956;-63
2021/11/09 09:04:19;;;;;;;12.03;9.43;;;;;;;;;;5061863;28;24472;-63
2021/11/09 09:06:54;;;;;;;11.57;9.40;;;;;;;;;;5064319;28;24454;-62
2021/11/09 09:09:20;;;;;;;10.40;9.20;;;;;;;;;;5065356;28;24444;-62
2021/11/09 09:11:46;;;;;;;10.80;8.50;;;;;;;;;;5061506;28;24399;-63
2021/11/09 09:14:12;;;;;;;13.15;9.10;;;;;;;;;;5059785;28;24570;-63
2021/11/09 09:16:39;;;;;;;11.33;9.80;;;;;;;;;;5061151;28;25016;-63
2021/11/09 09:19:05;;;;;;;15.07;10.20;;;;;;;;;;5063491;28;24481;-63
2021/11/09 09:24:07;;;;;;;11.67;10.37;;;;;;;;;;5063492;28;24482;-64
2021/11/09 09:26:52;;;;;;;11.10;9.30;;;;;;;;;;5061307;28;24421;-64
2021/11/09 09:54:30;;;;;;;8.40;7.50;;;;;;;;;;5040660;28;24426;-63
2021/11/09 09:56:57;;;;;;;9.18;8.30;;;;;;;;;;5062738;28;24409;-63
2021/11/09 09:59:24;;;;;;;9.20;8.30;;;;;;;;;;5058934;28;24438;-63
2021/11/09 10:02:02;;;;;;;9.90;8.82;;;;;;;;;;5060140;28;24418;-63
2021/11/09 10:04:50;;;;;;;8.67;7.87;;;;;;;;;;5060937;28;25055;-62
2021/11/09 10:07:32;;;;;;;8.23;7.05;;;;;;;;;;5051383;28;24411;-62
2021/11/09 10:09:57;;;;;;;9.85;8.73;;;;;;;;;;5061885;28;24780;-62
2021/11/09 10:12:31;;;;;;;8.33;7.43;;;;;;;;;;5060858;28;24964;-62
2021/11/09 10:14:57;;;;;;;10.40;8.00;;;;;;;;;;5058693;28;24540;-62
2021/11/09 10:17:24;;;;;;;12.00;9.10;;;;;;;;;;5062599;28;24494;-62
2021/11/09 10:19:49;;;;;;;8.37;7.47;;;;;;;;;;5062267;28;24497;-61
2021/11/09 10:22:20;;;;;;;10.03;7.47;;;;;;;;;;5064605;28;24837;-61
2021/11/09 10:24:50;;;;;;;8.45;7.63;;;;;;;;;;5064078;28;24460;-62
2021/11/09 10:27:15;;;;;;;9.02;6.40;;;;;;;;;;5060648;28;24498;-62
2021/11/09 10:29:41;;;;;;;7.10;6.40;;;;;;;;;;5059983;28;24506;-63
2021/11/09 10:32:18;;;;;;;6.13;5.22;;;;;;;;;;5060388;28;25052;-63
2021/11/09 10:34:44;;;;;;;8.20;6.63;;;;;;;;;;5062280;28;24464;-62
2021/11/09 10:37:20;;;;;;;6.37;5.50;;;;;;;;;;5063940;28;24788;-62
2021/11/09 10:39:47;;;;;;;8.30;6.57;;;;;;;;;;5063657;28;25024;-62
2021/11/09 10:42:13;;;;;;;7.20;6.47;;;;;;;;;;5059297;28;24483;-64
2021/11/09 10:44:40;;;;;;;7.07;6.38;;;;;;;;;;5059002;28;24545;-64
2021/11/09 10:47:22;;;;;;;8.18;6.20;;;;;;;;;;5062350;28;24638;-61
2021/11/09 10:49:52;;;;;;;11.50;7.50;;;;;;;;;;5061605;28;25018;-62
2021/11/09 10:52:19;;;;;;;7.03;6.32;;;;;;;;;;5063388;28;24434;-62
2021/11/09 10:54:48;;;;;;;6.70;5.50;;;;;;;;;;5060264;28;24476;-61
2021/11/09 10:57:22;;;;;;;7.28;5.90;;;;;;;;;;5060078;28;24521;-63
2021/11/09 11:00:05;;;;;;;6.57;5.10;;;;;;;;;;5061809;28;24478;-62
2021/11/09 11:05:21;;;;;;;8.50;6.63;;;;;;;;;;5061680;28;25005;-62
2021/11/09 11:07:49;;;;;;;7.30;5.45;;;;;;;;;;5059797;28;24387;-62
2021/11/09 11:10:18;;;;;;;6.90;6.20;;;;;;;;;;5060176;28;24468;-62
2021/11/09 11:12:44;;;;;;;7.97;6.50;;;;;;;;;;5059494;28;24500;-63
2021/11/09 11:15:10;;;;;;;9.13;6.53;;;;;;;;;;5063406;28;24399;-62
2021/11/09 11:17:38;;;;;;;7.22;6.20;;;;;;;;;;5062920;28;24797;-62
2021/11/09 11:20:04;;;;;;;6.00;5.40;;;;;;;;;;5061048;28;25239;-62
2021/11/09 11:22:29;;;;;;;6.07;5.00;;;;;;;;;;5057032;28;24972;-63
2021/11/09 11:24:55;;;;;;;5.80;5.00;;;;;;;;;;5059527;28;24897;-62
2021/11/09 11:27:21;;;;;;;8.05;6.40;;;;;;;;;;5062949;28;24422;-63
2021/11/09 11:29:46;;;;;;;6.13;5.22;;;;;;;;;;5061023;28;24395;-62
2021/11/09 11:32:13;;;;;;;9.27;6.47;;;;;;;;;;5062777;28;24433;-62
2021/11/09 11:34:39;;;;;;;9.00;6.22;;;;;;;;;;5060650;28;24879;-62
2021/11/09 11:37:05;;;;;;;6.33;5.73;;;;;;;;;;5057343;28;25007;-64
2021/11/09 11:39:32;;;;;;;5.70;5.10;;;;;;;;;;5056764;28;24758;-62
2021/11/09 11:42:01;;;;;;;6.27;5.30;;;;;;;;;;5060369;28;24498;-63
2021/11/09 11:44:28;;;;;;;5.32;4.50;;;;;;;;;;5062426;28;24407;-63
2021/11/09 11:46:57;;;;;;;6.40;4.70;;;;;;;;;;5060739;28;24448;-64
2021/11/09 11:49:27;;;;;;;4.30;3.90;;;;;;;;;;5060726;28;24440;-64
2021/11/09 11:51:52;;;;;;;6.75;4.50;;;;;;;;;;5057029;28;24391;-62
2021/11/09 11:54:18;;;;;;;4.75;3.78;;;;;;;;;;5058248;28;24409;-63
2021/11/09 11:56:47;;;;;;;4.40;4.00;;;;;;;;;;5058578;28;24403;-62
2021/11/09 11:59:37;;;;;;;6.05;4.10;;;;;;;;;;5062261;28;24395;-63
2021/11/09 12:02:07;;;;;;;4.28;3.88;;;;;;;;;;5060369;28;25160;-62
2021/11/09 12:04:32;;;;;;;5.78;3.65;;;;;;;;;;5058358;28;24917;-63
2021/11/09 12:06:57;;;;;;;5.73;4.10;;;;;;;;;;5056096;28;24461;-62
2021/11/09 12:09:32;;;;;;;4.60;3.65;;;;;;;;;;5060486;28;24389;-62
2021/11/09 12:11:57;;;;;;;4.03;3.40;;;;;;;;;;5061955;28;24988;-62
2021/11/09 12:14:23;;;;;;;5.30;4.80;;;;;;;;;;5062239;28;24444;-62
2021/11/09 12:16:52;;;;;;;5.57;4.93;;;;;;;;;;5059988;28;24430;-63
2021/11/09 12:19:35;;;;;;;6.20;5.45;;;;;;;;;;5055901;28;24818;-62
2021/11/09 12:22:11;;;;;;;6.78;6.07;;;;;;;;;;5056379;28;24457;-64
2021/11/09 12:24:57;;;;;;;5.45;4.95;;;;;;;;;;5059944;28;24391;-63
2021/11/09 12:27:29;;;;;;;5.82;4.65;;;;;;;;;;5062106;28;24411;-63
2021/11/09 12:29:54;;;;;;;6.65;5.95;;;;;;;;;;5059264;28;24415;-63
2021/11/09 12:32:23;;;;;;;4.87;4.37;;;;;;;;;;5058111;28;24437;-62
2021/11/09 12:35:01;;;;;;;6.38;5.32;;;;;;;;;;5057132;28;24430;-63
2021/11/09 12:37:26;;;;;;;4.40;4.00;;;;;;;;;;5058369;28;24460;-63
2021/11/09 12:40:11;;;;;;;6.87;5.40;;;;;;;;;;5059040;28;24480;-62
2021/11/09 12:43:00;;;;;;;6.68;4.80;;;;;;;;;;5061674;28;24978;-62
2021/11/09 12:45:27;;;;;;;6.32;4.82;;;;;;;;;;5061587;28;24847;-62
2021/11/09 12:48:03;;;;;;;5.80;5.00;;;;;;;;;;5057887;28;24746;-62
2021/11/09 12:50:29;;;;;;;7.80;5.70;;;;;;;;;;5055765;28;24808;-63
2021/11/09 12:53:05;;;;;;;6.40;5.40;;;;;;;;;;5057967;28;24944;-63
2021/11/09 12:55:30;;;;;;;5.57;5.07;;;;;;;;;;5061691;28;24387;-63
2021/11/09 12:57:56;;;;;;;6.03;5.10;;;;;;;;;;5059629;28;24375;-63
2021/11/09 13:00:28;;;;;;;5.83;4.60;;;;;;;;;;5061471;28;24426;-63
2021/11/09 13:02:55;;;;;;;6.97;5.30;;;;;;;;;;5059285;28;25042;-64
2021/11/09 13:05:29;;;;;;;6.90;5.30;;;;;;;;;;5055674;28;25018;-63
2021/11/09 13:08:15;;;;;;;5.03;4.50;;;;;;;;;;5056002;28;24410;-63
2021/11/09 13:10:40;;;;;;;5.23;4.73;;;;;;;;;;5059548;28;24494;-64
2021/11/09 13:13:05;;;;;;;4.90;4.40;;;;;;;;;;5061043;28;24517;-62
2021/11/09 13:15:31;;;;;;;4.60;4.20;;;;;;;;;;5061357;28;25148;-63
2021/11/09 13:18:03;;;;;;;5.80;4.40;;;;;;;;;;5057563;28;24414;-62
2021/11/09 13:23:00;;;;;;;4.70;4.00;;;;;;;;;;5057598;28;24403;-62
2021/11/09 13:25:29;;;;;;;3.33;3.03;;;;;;;;;;5061112;28;25013;-62
2021/11/09 13:27:55;;;;;;;3.08;2.88;;;;;;;;;;5059201;28;25046;-63
2021/11/09 13:30:22;;;;;;;3.30;3.00;;;;;;;;;;5061375;28;24409;-62
2021/11/09 13:32:48;;;;;;;2.80;2.47;;;;;;;;;;5057721;28;24466;-62
2021/11/09 13:35:34;;;;;;;3.42;2.50;;;;;;;;;;5056207;28;24998;-62
2021/11/09 13:38:08;;;;;;;2.10;1.90;;;;;;;;;;5060162;28;24818;-62
2021/11/09 13:40:33;;;;;;;2.92;2.40;;;;;;;;;;5060584;28;24407;-62
2021/11/09 13:43:00;;;;;;;2.92;2.50;;;;;;;;;;5061821;28;24472;-62
2021/11/09 13:45:25;;;;;;;3.17;2.20;;;;;;;;;;5065068;28;24523;-63
2021/11/09 13:47:50;;;;;;;2.80;2.60;;;;;;;;;;5062762;28;25197;-62
2021/11/09 13:50:16;;;;;;;3.10;2.80;;;;;;;;;;5060056;28;24444;-63
2021/11/09 13:52:44;;;;;;;3.13;2.63;;;;;;;;;;5061015;28;24748;-63
2021/11/09 13:55:09;;;;;;;4.38;2.90;;;;;;;;;;5058107;28;24411;-63
2021/11/09 13:57:35;;;;;;;2.90;2.60;;;;;;;;;;5064716;28;24410;-63
2021/11/09 14:00:39;;;;;;;3.27;2.70;;;;;;;;;;5062567;28;25061;-63
2021/11/09 14:03:10;;;;;;;4.28;3.10;;;;;;;;;;4998638;28;24405;-63
2021/11/09 14:14:00;;;;;;;4.67;3.90;;;;;;;;;;5042432;28;24963;-64
2021/11/09 14:16:38;;;;;;;4.82;4.43;;;;;;;;;;5052050;28;24399;-62
2021/11/09 14:19:04;;;;;;;4.82;3.80;;;;;;;;;;5058050;28;24448;-61
2021/11/09 14:21:34;;;;;;;4.00;3.70;;;;;;;;;;5058529;28;24469;-62
2021/11/09 14:24:13;;;;;;;4.70;4.30;;;;;;;;;;5062169;28;24398;-62
2021/11/09 14:26:39;;;;;;;5.53;4.13;;;;;;;;;;5063744;28;24523;-65
2021/11/09 14:29:15;;;;;;;5.15;4.20;;;;;;;;;;5062143;28;25280;-63
2021/11/09 14:31:45;;;;;;;4.40;3.97;;;;;;;;;;5061751;28;24423;-63
2021/11/09 14:34:12;;;;;;;4.57;4.18;;;;;;;;;;5058487;28;24510;-62
2021/11/09 14:36:39;;;;;;;5.55;4.57;;;;;;;;;;5058077;28;24968;-62
2021/11/09 14:39:13;;;;;;;4.18;3.88;;;;;;;;;;5058950;28;24789;-63
2021/11/09 14:42:02;;;;;;;4.20;3.80;;;;;;;;;;5061101;28;24968;-63
2021/11/09 14:44:29;;;;;;;3.00;2.80;;;;;;;;;;5054477;28;24453;-63
2021/11/09 14:46:57;;;;;;;3.50;3.10;;;;;;;;;;5074004;28;24490;-65
2021/11/09 14:49:26;;;;;;;4.05;3.75;;;;;;;;;;5059718;28;24440;-63
2021/11/09 14:51:56;;;;;;;3.40;3.10;;;;;;;;;;5057519;28;24855;-62
2021/11/09 14:54:28;;;;;;;3.40;3.10;;;;;;;;;;5061354;28;24399;-63
2021/11/09 14:57:02;;;;;;;3.00;2.70;;;;;;;;;;5061347;28;24411;-62
2021/11/09 14:59:27;;;;;;;4.00;3.60;;;;;;;;;;5062663;28;24526;-64
2021/11/09 15:02:00;;;;;;;3.30;3.00;;;;;;;;;;5057084;28;25036;-63
2021/11/09 15:04:34;;;;;;;3.65;3.35;;;;;;;;;;5049403;28;24964;-63
2021/11/09 15:07:10;;;;;;;4.03;3.03;;;;;;;;;;5059642;28;24952;-64
2021/11/09 15:12:28;;;;;;;3.00;2.70;;;;;;;;;;5059719;28;24429;-63
2021/11/09 15:28:32;;;;;;;4.43;3.75;;;;;;;;;;5057380;28;24982;-63
2021/11/09 15:31:04;;;;;;;3.92;3.63;;;;;;;;;;5059242;28;24428;-63
2021/11/09 15:36:11;;;;;;;5.00;4.60;;;;;;;;;;5062476;28;24510;-63
2021/11/09 15:38:36;;;;;;;5.55;5.05;;;;;;;;;;5062265;28;24437;-64
2021/11/09 15:41:02;;;;;;;6.68;5.65;;;;;;;;;;5056940;28;24921;-64
2021/11/09 15:43:29;;;;;;;6.27;5.70;;;;;;;;;;5056924;28;24490;-63
2021/11/09 15:45:55;;;;;;;7.20;6.60;;;;;;;;;;5063122;28;24795;-64
2021/11/09 15:48:20;;;;;;;7.28;6.57;;;;;;;;;;5062476;28;24415;-63
2021/11/09 15:50:45;;;;;;;7.60;6.90;;;;;;;;;;5063021;28;24475;-63
2021/11/09 15:53:11;;;;;;;8.82;7.93;;;;;;;;;;5058780;28;24983;-64
2021/11/09 15:55:36;;;;;;;7.97;7.27;;;;;;;;;;5057003;28;24786;-65
2021/11/09 15:58:01;;;;;;;8.43;7.72;;;;;;;;;;5060069;28;24524;-64
2021/11/09 16:00:27;;;;;;;8.80;7.90;;;;;;;;;;5062189;28;24608;-64
2021/11/09 16:02:52;;;;;;;8.10;7.30;;;;;;;;;;5060623;28;25272;-64
2021/11/09 16:05:18;;;;;;;9.70;8.70;;;;;;;;;;5060523;28;24424;-64
2021/11/09 16:07:45;;;;;;;9.27;8.38;;;;;;;;;;5059020;28;24406;-66
2021/11/09 16:10:15;;;;;;;9.25;8.45;;;;;;;;;;5057580;28;24407;-65
2021/11/09 16:12:40;;;;;;;9.90;8.90;;;;;;;;;;5062258;28;24624;-65
2021/11/09 16:15:06;;;;;;;9.50;8.60;;;;;;;;;;5060583;28;24849;-65
2021/11/09 16:17:32;;;;;;;9.50;8.70;;;;;;;;;;5062478;28;24398;-65
2021/11/09 16:19:58;;;;;;;10.00;9.07;;;;;;;;;;5055991;28;24403;-65
2021/11/09 16:22:27;;;;;;;9.32;8.43;;;;;;;;;;5058642;28;24399;-65
2021/11/09 16:24:53;;;;;;;9.85;8.98;;;;;;;;;;5062584;28;24394;-65
2021/11/09 16:27:19;;;;;;;10.10;9.20;;;;;;;;;;5062027;28;24410;-65
2021/11/09 16:30:00;;;;;;;9.70;8.90;;;;;;;;;;5061518;28;24514;-64
2021/11/09 16:32:27;;;;;;;10.27;9.37;;;;;;;;;;5056463;28;24431;-64
2021/11/09 16:34:57;;;;;;;10.32;9.43;;;;;;;;;;5058890;28;24925;-64
2021/11/09 16:37:23;;;;;;;10.57;9.57;;;;;;;;;;5070088;28;24491;-65
2021/11/09 16:39:51;;;;;;;11.30;10.20;;;;;;;;;;5069983;28;24445;-64
2021/11/09 16:42:17;;;;;;;11.25;10.15;;;;;;;;;;5061901;28;24486;-64
2021/11/09 16:44:43;;;;;;;11.10;10.18;;;;;;;;;;5060000;28;24964;-64
2021/11/09 16:47:09;;;;;;;11.10;10.10;;;;;;;;;;5056353;28;24420;-64
2021/11/09 16:52:15;;;;;;;11.55;10.45;;;;;;;;;;5061224;28;24443;-64
2021/11/09 16:54:47;;;;;;;12.50;11.30;;;;;;;;;;5061892;28;24958;-65
2021/11/09 17:00:16;;;;;;;11.75;10.65;;;;;;;;;;5055189;28;24433;-66
2021/11/09 17:03:23;;;;;;;12.15;10.35;;;;;;;;;;5053456;28;24426;-64
2021/11/09 17:21:11;;;;;;;15.10;12.48;;;;;;;;;;5064832;28;24382;-64
2021/11/09 18:03:50;;;;;;;14.50;13.00;;;;;;;;;;5062670;28;24441;-66
2021/11/09 18:21:30;;;;;;;14.70;13.30;;;;;;;;;;4985158;28;24428;-67
2021/11/09 18:23:56;;;;;;;14.77;13.20;;;;;;;;;;5058455;28;24458;-65
2021/11/09 18:26:23;;;;;;;13.87;12.57;;;;;;;;;;5055705;28;24458;-66